Time;durP1;ratioP1;P1;durP2;ratioP2;P2;SDS_P1;SDS_P2;PMS_P1;PMS_P2;Temp;Humidity;BMP_temperature;BMP_pressure;BME280_temperature;BME280_humidity;BME280_pressure;Samples;Min_cycle;Max_cycle;Signal;HPM_P1;HPM_P2
2023/06/24 00:01:17;;;;;;;24.23;15.45;;;;;;;;;;5013617;28;20037;-74
2023/06/24 00:03:46;;;;;;;23.70;17.10;;;;;;;;;;5013845;28;20014;-74
2023/06/24 00:06:18;;;;;;;20.63;17.33;;;;;;;;;;5013433;28;20042;-74
2023/06/24 00:08:44;;;;;;;25.20;16.88;;;;;;;;;;5013422;28;20447;-76
2023/06/24 00:11:11;;;;;;;24.23;16.35;;;;;;;;;;5013456;28;20022;-74
2023/06/24 00:13:37;;;;;;;24.05;17.30;;;;;;;;;;5013656;28;20030;-74
2023/06/24 00:16:03;;;;;;;21.02;16.33;;;;;;;;;;5013231;28;20041;-73
2023/06/24 00:18:29;;;;;;;23.58;16.98;;;;;;;;;;4994863;28;20044;-71
2023/06/24 00:20:56;;;;;;;25.52;16.92;;;;;;;;;;5012553;28;20421;-73
2023/06/24 00:23:26;;;;;;;21.85;16.40;;;;;;;;;;5013385;28;20037;-74
2023/06/24 00:25:53;;;;;;;19.92;15.60;;;;;;;;;;5013011;28;20029;-73
2023/06/24 00:28:19;;;;;;;23.10;16.85;;;;;;;;;;5013067;28;20153;-73
2023/06/24 00:30:45;;;;;;;20.38;15.68;;;;;;;;;;5013246;28;20080;-73
2023/06/24 00:33:13;;;;;;;24.90;17.38;;;;;;;;;;5013085;28;20543;-73
2023/06/24 00:35:39;;;;;;;25.92;17.20;;;;;;;;;;5012814;28;20045;-73
2023/06/24 00:38:05;;;;;;;20.80;16.23;;;;;;;;;;5012542;28;20451;-73
2023/06/24 00:40:31;;;;;;;28.15;17.40;;;;;;;;;;5013119;28;20387;-73
2023/06/24 00:42:58;;;;;;;30.75;18.15;;;;;;;;;;5013026;28;20097;-74
2023/06/24 00:45:24;;;;;;;24.05;16.77;;;;;;;;;;5013011;28;20022;-73
2023/06/24 00:47:51;;;;;;;23.52;17.08;;;;;;;;;;5012588;28;20116;-73
2023/06/24 00:50:17;;;;;;;20.90;16.77;;;;;;;;;;5012998;28;20061;-73
2023/06/24 00:52:44;;;;;;;24.20;17.20;;;;;;;;;;5012425;28;20108;-72
2023/06/24 00:55:14;;;;;;;28.75;18.02;;;;;;;;;;5012756;28;20484;-72
2023/06/24 00:57:41;;;;;;;25.88;17.23;;;;;;;;;;5012582;28;20022;-73
2023/06/24 01:00:11;;;;;;;25.05;18.52;;;;;;;;;;5012542;28;20032;-73
2023/06/24 01:02:37;;;;;;;24.58;19.75;;;;;;;;;;5012569;28;20109;-72
2023/06/24 01:05:06;;;;;;;27.00;18.80;;;;;;;;;;4994852;28;20099;-73
2023/06/24 01:07:32;;;;;;;29.98;21.10;;;;;;;;;;5012530;28;20117;-72
2023/06/24 01:10:00;;;;;;;32.90;18.92;;;;;;;;;;5012615;28;20105;-72
2023/06/24 01:12:26;;;;;;;28.08;20.50;;;;;;;;;;5012682;28;20033;-74
2023/06/24 01:14:52;;;;;;;29.58;20.30;;;;;;;;;;5012231;28;20105;-73
2023/06/24 01:17:23;;;;;;;29.17;20.05;;;;;;;;;;5012073;28;20026;-73
2023/06/24 01:20:04;;;;;;;26.08;21.08;;;;;;;;;;5012355;28;20030;-72
2023/06/24 01:22:49;;;;;;;28.08;20.95;;;;;;;;;;4994695;28;20026;-72
2023/06/24 01:25:30;;;;;;;35.08;21.70;;;;;;;;;;5012286;28;20022;-73
2023/06/24 01:27:56;;;;;;;30.27;20.73;;;;;;;;;;5011949;28;20076;-73
2023/06/24 01:30:23;;;;;;;32.25;21.90;;;;;;;;;;5011998;28;20034;-72
2023/06/24 01:32:55;;;;;;;34.85;22.90;;;;;;;;;;5012209;28;20069;-72
2023/06/24 01:35:24;;;;;;;27.88;21.98;;;;;;;;;;5011883;28;20500;-73
2023/06/24 01:37:54;;;;;;;31.85;22.58;;;;;;;;;;5011889;28;20033;-73
2023/06/24 01:40:20;;;;;;;32.13;21.90;;;;;;;;;;5012062;28;20072;-72
2023/06/24 01:42:47;;;;;;;32.60;23.35;;;;;;;;;;4994342;28;20022;-72
2023/06/24 01:45:14;;;;;;;30.17;22.20;;;;;;;;;;5011905;28;20041;-72
2023/06/24 01:47:48;;;;;;;28.23;22.98;;;;;;;;;;4994136;28;20053;-72
2023/06/24 01:50:15;;;;;;;31.55;23.45;;;;;;;;;;5011871;28;20037;-72
2023/06/24 01:52:43;;;;;;;35.35;23.02;;;;;;;;;;5011733;28;20113;-72
2023/06/24 01:55:11;;;;;;;36.60;23.00;;;;;;;;;;5011400;28;20108;-73
2023/06/24 01:57:37;;;;;;;31.58;22.48;;;;;;;;;;5011506;28;20101;-73
2023/06/24 02:00:06;;;;;;;31.63;22.98;;;;;;;;;;5011884;28;20033;-73
2023/06/24 02:02:32;;;;;;;37.90;25.20;;;;;;;;;;5011756;28;20075;-73
2023/06/24 02:04:59;;;;;;;38.58;24.70;;;;;;;;;;5011503;28;20541;-73
2023/06/24 02:07:26;;;;;;;32.05;23.23;;;;;;;;;;5023625;22;20136;-74
2023/06/24 02:09:52;;;;;;;29.88;22.73;;;;;;;;;;5011137;28;20041;-76
2023/06/24 02:12:19;;;;;;;38.92;24.30;;;;;;;;;;5011509;28;20403;-76
2023/06/24 02:14:46;;;;;;;40.97;25.05;;;;;;;;;;5011792;28;20093;-76
2023/06/24 02:17:12;;;;;;;32.67;24.95;;;;;;;;;;5011264;28;20022;-76
2023/06/24 02:19:39;;;;;;;44.83;27.02;;;;;;;;;;5011766;28;20026;-75
2023/06/24 02:22:09;;;;;;;31.77;24.65;;;;;;;;;;5011425;28;20026;-75
2023/06/24 02:24:35;;;;;;;36.00;26.00;;;;;;;;;;5011611;28;20022;-77
2023/06/24 02:27:02;;;;;;;32.33;24.35;;;;;;;;;;4993413;28;20107;-77
2023/06/24 02:29:28;;;;;;;33.38;25.02;;;;;;;;;;5011448;28;20393;-76
2023/06/24 02:31:55;;;;;;;36.97;25.58;;;;;;;;;;5011398;28;20022;-76
2023/06/24 02:34:21;;;;;;;34.63;24.98;;;;;;;;;;5011568;28;20084;-76
2023/06/24 02:36:47;;;;;;;36.47;25.77;;;;;;;;;;4993586;28;20033;-76
2023/06/24 02:39:13;;;;;;;36.55;25.00;;;;;;;;;;5011294;28;20018;-76
2023/06/24 02:41:39;;;;;;;32.92;24.60;;;;;;;;;;4993898;28;20029;-76
2023/06/24 02:44:05;;;;;;;28.38;22.17;;;;;;;;;;5011599;28;20026;-76
2023/06/24 02:46:32;;;;;;;31.63;24.17;;;;;;;;;;4993975;28;20022;-76
2023/06/24 02:48:59;;;;;;;30.15;22.77;;;;;;;;;;5011014;28;20494;-76
2023/06/24 02:51:26;;;;;;;34.67;23.83;;;;;;;;;;5011174;28;20075;-76
2023/06/24 02:53:53;;;;;;;29.80;23.13;;;;;;;;;;5011287;28;20022;-75
2023/06/24 02:56:20;;;;;;;33.55;25.38;;;;;;;;;;5011236;28;20022;-75
2023/06/24 02:58:47;;;;;;;36.72;24.20;;;;;;;;;;5010826;28;20427;-76
2023/06/24 03:01:13;;;;;;;29.15;22.27;;;;;;;;;;5011010;28;20197;-76
2023/06/24 03:03:40;;;;;;;32.83;23.20;;;;;;;;;;5011155;28;20392;-76
2023/06/24 03:06:07;;;;;;;31.20;22.92;;;;;;;;;;5010908;28;20480;-75
2023/06/24 03:08:33;;;;;;;34.88;24.38;;;;;;;;;;5011017;28;20026;-75
2023/06/24 03:10:59;;;;;;;30.95;21.73;;;;;;;;;;5011211;28;20077;-75
2023/06/24 03:13:25;;;;;;;30.73;22.60;;;;;;;;;;5011107;28;20037;-75
2023/06/24 03:15:51;;;;;;;33.40;22.73;;;;;;;;;;5010937;28;20037;-75
2023/06/24 03:18:17;;;;;;;30.52;22.02;;;;;;;;;;4993377;28;20018;-75
2023/06/24 03:20:44;;;;;;;32.03;22.60;;;;;;;;;;5010800;28;20097;-75
2023/06/24 03:23:10;;;;;;;28.02;21.75;;;;;;;;;;5012749;28;20014;-75
2023/06/24 03:25:36;;;;;;;29.65;22.17;;;;;;;;;;5014374;28;20437;-74
2023/06/24 03:28:07;;;;;;;48.30;34.67;;;;;;;;;;5014161;28;20164;-74
2023/06/24 03:30:33;;;;;;;35.70;22.77;;;;;;;;;;5014290;28;20036;-75
2023/06/24 03:32:59;;;;;;;26.95;20.25;;;;;;;;;;5014260;28;20022;-76
2023/06/24 03:35:25;;;;;;;27.25;20.38;;;;;;;;;;5014236;28;20029;-76
2023/06/24 03:37:51;;;;;;;30.40;20.85;;;;;;;;;;5013982;28;20030;-76
2023/06/24 03:40:17;;;;;;;35.45;21.35;;;;;;;;;;5014009;28;20404;-76
2023/06/24 03:42:43;;;;;;;32.78;21.63;;;;;;;;;;5014283;28;20026;-76
2023/06/24 03:45:09;;;;;;;29.73;20.25;;;;;;;;;;5014024;28;20026;-76
2023/06/24 03:47:35;;;;;;;29.80;21.83;;;;;;;;;;4995846;28;20051;-76
2023/06/24 03:50:01;;;;;;;28.48;20.95;;;;;;;;;;4996303;28;20030;-75
2023/06/24 03:52:28;;;;;;;25.88;18.65;;;;;;;;;;4996236;28;20030;-76
2023/06/24 03:54:54;;;;;;;28.58;19.23;;;;;;;;;;5013945;28;20040;-74
2023/06/24 03:57:20;;;;;;;31.52;19.38;;;;;;;;;;5013575;28;20036;-75
2023/06/24 03:59:46;;;;;;;25.40;18.00;;;;;;;;;;5015331;28;20030;-74
2023/06/24 04:02:13;;;;;;;17.70;15.45;;;;;;;;;;5016235;28;20457;-74
2023/06/24 04:04:40;;;;;;;19.08;14.50;;;;;;;;;;5017837;28;20029;-75
2023/06/24 04:07:06;;;;;;;17.45;12.00;;;;;;;;;;5015960;28;20045;-75
2023/06/24 04:09:35;;;;;;;20.80;12.57;;;;;;;;;;5013970;28;20388;-75
2023/06/24 04:12:01;;;;;;;15.70;10.98;;;;;;;;;;5013668;28;20025;-75
2023/06/24 04:14:27;;;;;;;12.65;9.38;;;;;;;;;;4996160;28;20049;-75
2023/06/24 04:16:53;;;;;;;18.98;10.48;;;;;;;;;;5013269;28;20119;-75
2023/06/24 04:19:19;;;;;;;17.45;9.70;;;;;;;;;;5013288;28;20018;-76
2023/06/24 04:21:45;;;;;;;18.25;11.82;;;;;;;;;;5013338;28;20026;-75
2023/06/24 04:24:11;;;;;;;14.00;10.45;;;;;;;;;;5013348;28;20468;-75
2023/06/24 04:26:37;;;;;;;17.08;11.52;;;;;;;;;;5013753;28;20029;-76
2023/06/24 04:29:03;;;;;;;19.58;11.82;;;;;;;;;;5013646;28;20088;-77
2023/06/24 04:31:29;;;;;;;13.23;10.00;;;;;;;;;;4996077;28;20480;-77
2023/06/24 04:33:56;;;;;;;14.90;9.95;;;;;;;;;;5013534;28;20113;-77
2023/06/24 04:36:22;;;;;;;12.13;9.18;;;;;;;;;;5014176;28;20060;-77
2023/06/24 04:38:48;;;;;;;15.70;8.93;;;;;;;;;;5013014;28;20461;-77
2023/06/24 04:41:14;;;;;;;16.23;9.15;;;;;;;;;;5013522;28;20033;-77
2023/06/24 04:43:40;;;;;;;15.13;8.32;;;;;;;;;;4996034;28;20030;-77
2023/06/24 04:46:06;;;;;;;15.15;9.45;;;;;;;;;;5013140;28;20038;-76
2023/06/24 04:48:32;;;;;;;12.45;8.68;;;;;;;;;;5013228;28;20540;-76
2023/06/24 04:50:58;;;;;;;14.50;9.77;;;;;;;;;;4996066;28;20028;-77
2023/06/24 04:53:24;;;;;;;15.27;9.80;;;;;;;;;;5013579;28;20106;-77
2023/06/24 04:55:50;;;;;;;17.25;10.40;;;;;;;;;;5016959;28;20480;-77
2023/06/24 04:58:16;;;;;;;21.50;11.98;;;;;;;;;;5017013;28;20057;-77
2023/06/24 05:00:43;;;;;;;18.27;13.25;;;;;;;;;;5016283;28;20041;-77
2023/06/24 05:03:09;;;;;;;18.67;13.75;;;;;;;;;;5014303;28;20026;-76
2023/06/24 05:05:35;;;;;;;20.25;12.77;;;;;;;;;;5013524;28;20069;-77
2023/06/24 05:08:01;;;;;;;23.27;15.93;;;;;;;;;;4995643;28;20100;-76
2023/06/24 05:10:27;;;;;;;19.58;15.23;;;;;;;;;;5012664;28;20026;-76
2023/06/24 05:12:53;;;;;;;23.65;16.55;;;;;;;;;;5012609;28;20036;-75
2023/06/24 05:15:19;;;;;;;26.00;16.40;;;;;;;;;;5012371;28;20112;-75
2023/06/24 05:17:45;;;;;;;24.38;16.92;;;;;;;;;;5012244;28;20022;-75
2023/06/24 05:20:11;;;;;;;28.95;17.77;;;;;;;;;;5012110;28;20784;-75
2023/06/24 05:22:40;;;;;;;23.13;19.10;;;;;;;;;;4994496;28;20033;-76
2023/06/24 05:25:06;;;;;;;27.02;19.02;;;;;;;;;;5012118;28;20026;-76
2023/06/24 05:27:32;;;;;;;20.48;18.30;;;;;;;;;;5011582;28;20029;-77
2023/06/24 05:29:59;;;;;;;26.30;19.33;;;;;;;;;;5013020;28;20030;-75
2023/06/24 05:32:25;;;;;;;24.05;19.58;;;;;;;;;;5031966;28;20060;-74
2023/06/24 05:34:51;;;;;;;28.00;20.50;;;;;;;;;;5014845;28;20494;-80
2023/06/24 05:37:17;;;;;;;24.25;20.08;;;;;;;;;;5032230;28;20030;-76
2023/06/24 05:39:43;;;;;;;36.58;22.02;;;;;;;;;;5031785;28;20074;-76
2023/06/24 05:42:09;;;;;;;35.70;21.00;;;;;;;;;;5031745;28;20048;-76
2023/06/24 05:44:35;;;;;;;32.05;21.23;;;;;;;;;;5026103;28;20025;-76
2023/06/24 05:47:01;;;;;;;27.30;20.00;;;;;;;;;;5009305;28;20034;-76
2023/06/24 05:49:27;;;;;;;28.95;21.27;;;;;;;;;;5013563;28;20037;-77
2023/06/24 05:51:53;;;;;;;27.38;20.63;;;;;;;;;;4998452;28;20030;-78
2023/06/24 05:54:19;;;;;;;27.58;20.80;;;;;;;;;;5018367;28;20395;-78
2023/06/24 05:56:44;;;;;;;25.13;20.42;;;;;;;;;;5011952;28;20026;-77
2023/06/24 05:59:11;;;;;;;26.85;21.75;;;;;;;;;;5012132;28;20033;-76
2023/06/24 06:01:37;;;;;;;24.73;20.33;;;;;;;;;;5011937;28;20393;-77
2023/06/24 06:04:03;;;;;;;30.60;20.63;;;;;;;;;;5011764;28;20473;-77
2023/06/24 06:06:29;;;;;;;27.90;20.65;;;;;;;;;;4994133;28;20080;-77
2023/06/24 06:08:55;;;;;;;28.73;20.90;;;;;;;;;;5012758;28;20048;-77
2023/06/24 06:11:21;;;;;;;27.15;20.48;;;;;;;;;;4999043;28;20112;-77
2023/06/24 06:13:47;;;;;;;27.70;21.00;;;;;;;;;;5014452;28;20063;-78
2023/06/24 06:16:13;;;;;;;24.73;20.10;;;;;;;;;;5011901;28;20034;-77
2023/06/24 06:18:39;;;;;;;26.92;20.60;;;;;;;;;;5012875;28;20032;-77
2023/06/24 06:21:05;;;;;;;30.45;20.70;;;;;;;;;;4995986;28;20129;-76
2023/06/24 06:23:31;;;;;;;25.95;20.30;;;;;;;;;;4994475;28;20033;-76
2023/06/24 06:25:57;;;;;;;29.58;20.80;;;;;;;;;;5011312;28;20026;-77
2023/06/24 06:28:23;;;;;;;29.20;20.08;;;;;;;;;;5011376;28;20033;-77
2023/06/24 06:30:49;;;;;;;29.17;20.75;;;;;;;;;;5011637;28;20030;-77
2023/06/24 06:33:15;;;;;;;24.98;19.65;;;;;;;;;;5011466;28;20407;-78
2023/06/24 06:35:41;;;;;;;30.10;19.55;;;;;;;;;;5011171;28;20049;-77
2023/06/24 06:38:07;;;;;;;29.38;19.90;;;;;;;;;;5011280;28;20033;-76
2023/06/24 06:40:35;;;;;;;29.00;19.30;;;;;;;;;;5011492;28;20022;-76
2023/06/24 06:43:01;;;;;;;29.50;18.83;;;;;;;;;;5011621;28;20029;-77
2023/06/24 06:45:27;;;;;;;29.58;19.52;;;;;;;;;;5011622;28;20025;-76
2023/06/24 06:47:53;;;;;;;28.58;18.38;;;;;;;;;;4993632;28;20029;-77
2023/06/24 06:50:19;;;;;;;21.77;18.25;;;;;;;;;;5011740;28;20030;-77
2023/06/24 06:52:45;;;;;;;24.85;18.55;;;;;;;;;;5011726;28;20077;-78
2023/06/24 06:55:11;;;;;;;26.58;19.17;;;;;;;;;;5014394;28;20032;-78
2023/06/24 06:57:37;;;;;;;25.05;19.05;;;;;;;;;;5018599;28;20106;-78
2023/06/24 07:00:03;;;;;;;29.55;18.77;;;;;;;;;;5019477;28;20082;-78
2023/06/24 07:02:29;;;;;;;28.20;19.15;;;;;;;;;;5006707;28;20034;-78
2023/06/24 07:04:55;;;;;;;32.28;18.63;;;;;;;;;;5025352;28;20473;-78
2023/06/24 07:07:21;;;;;;;22.02;16.33;;;;;;;;;;5025269;28;20041;-79
2023/06/24 07:09:47;;;;;;;26.92;17.08;;;;;;;;;;5025926;28;20026;-78
2023/06/24 07:12:13;;;;;;;27.42;16.35;;;;;;;;;;5020359;28;20048;-78
2023/06/24 07:14:40;;;;;;;26.52;16.65;;;;;;;;;;5021592;28;20037;-78
2023/06/24 07:17:06;;;;;;;21.95;15.00;;;;;;;;;;5003164;28;20117;-78
2023/06/24 07:19:32;;;;;;;26.05;15.73;;;;;;;;;;5015860;28;20030;-78
2023/06/24 07:21:58;;;;;;;16.38;13.55;;;;;;;;;;5014966;28;20018;-77
2023/06/24 07:24:24;;;;;;;17.05;12.82;;;;;;;;;;5013519;28;20022;-77
2023/06/24 07:26:50;;;;;;;17.85;13.20;;;;;;;;;;5012608;28;20076;-77
2023/06/24 07:29:16;;;;;;;18.13;12.52;;;;;;;;;;5012516;28;20112;-76
2023/06/24 07:31:42;;;;;;;14.98;11.25;;;;;;;;;;5012630;28;20125;-77
2023/06/24 07:34:08;;;;;;;17.60;11.52;;;;;;;;;;5012378;28;20026;-77
2023/06/24 07:36:34;;;;;;;15.60;10.25;;;;;;;;;;5012692;28;20511;-76
2023/06/24 07:39:00;;;;;;;16.08;9.35;;;;;;;;;;5013104;28;20049;-76
2023/06/24 07:41:26;;;;;;;13.15;8.95;;;;;;;;;;5012887;28;20050;-77
2023/06/24 07:43:52;;;;;;;15.27;9.15;;;;;;;;;;5014539;28;20029;-76
2023/06/24 07:46:18;;;;;;;15.02;9.35;;;;;;;;;;5014867;28;20105;-77
2023/06/24 07:48:44;;;;;;;12.95;8.75;;;;;;;;;;5014708;28;20416;-77
2023/06/24 07:51:10;;;;;;;14.85;9.40;;;;;;;;;;5014782;28;20026;-77
2023/06/24 07:53:36;;;;;;;14.85;9.35;;;;;;;;;;4994977;28;20036;-77
2023/06/24 07:56:02;;;;;;;16.52;9.32;;;;;;;;;;5012839;28;20049;-77
2023/06/24 07:58:28;;;;;;;13.07;9.45;;;;;;;;;;5013884;28;20058;-77
2023/06/24 08:00:54;;;;;;;13.55;10.23;;;;;;;;;;5014272;28;20076;-77
2023/06/24 08:03:21;;;;;;;17.38;10.30;;;;;;;;;;5014977;28;20089;-78
2023/06/24 08:05:49;;;;;;;15.35;10.48;;;;;;;;;;5014545;28;20034;-77
2023/06/24 08:08:15;;;;;;;12.30;9.48;;;;;;;;;;5055481;22;20053;-76
2023/06/24 08:10:41;;;;;;;14.23;9.68;;;;;;;;;;5032762;28;20060;-77
2023/06/24 08:13:07;;;;;;;10.07;8.43;;;;;;;;;;5033202;28;20478;-77
2023/06/24 08:15:33;;;;;;;10.00;7.72;;;;;;;;;;5033159;28;20087;-77
2023/06/24 08:17:59;;;;;;;11.07;8.77;;;;;;;;;;5032582;28;20403;-76
2023/06/24 08:20:26;;;;;;;14.65;7.97;;;;;;;;;;5033142;28;20056;-77
2023/06/24 08:22:52;;;;;;;16.95;7.60;;;;;;;;;;5033184;28;20017;-77
2023/06/24 08:25:18;;;;;;;11.00;6.10;;;;;;;;;;5032996;28;20506;-77
2023/06/24 08:27:46;;;;;;;8.57;6.18;;;;;;;;;;5032284;28;20036;-78
2023/06/24 08:30:12;;;;;;;10.18;6.18;;;;;;;;;;5033023;28;20096;-76
2023/06/24 08:32:40;;;;;;;11.75;5.55;;;;;;;;;;5032937;28;20160;-78
2023/06/24 08:35:06;;;;;;;10.35;5.50;;;;;;;;;;5036593;28;20163;-77
2023/06/24 08:37:32;;;;;;;9.13;5.47;;;;;;;;;;5035990;28;20040;-78
2023/06/24 08:39:58;;;;;;;10.70;5.25;;;;;;;;;;5015329;28;20120;-77
2023/06/24 08:42:24;;;;;;;10.55;4.63;;;;;;;;;;5032676;28;20045;-78
2023/06/24 08:44:50;;;;;;;13.20;4.68;;;;;;;;;;5032668;28;20021;-78
2023/06/24 08:47:17;;;;;;;6.65;4.53;;;;;;;;;;5014691;28;20018;-78
2023/06/24 08:49:57;;;;;;;8.27;4.32;;;;;;;;;;5020455;28;20033;-78
2023/06/24 08:52:25;;;;;;;7.50;4.40;;;;;;;;;;4996667;28;20488;-78
2023/06/24 08:54:52;;;;;;;7.00;4.05;;;;;;;;;;5011364;28;20029;-78
2023/06/24 08:57:18;;;;;;;5.72;3.85;;;;;;;;;;5012201;28;20136;-79
2023/06/24 08:59:44;;;;;;;5.47;3.58;;;30.40;38.70;;;;;;5012378;28;20026;-78
2023/06/24 09:02:11;;;;;;;5.85;4.10;;;30.40;39.30;;;;;;5012670;28;20018;-78
2023/06/24 09:04:36;;;;;;;6.68;4.20;;;29.20;39.40;;;;;;5012370;28;20028;-77
2023/06/24 09:07:03;;;;;;;8.48;3.90;;;27.40;42.20;;;;;;5012110;28;20132;-78
2023/06/24 09:09:28;;;;;;;7.97;3.65;;;27.20;45.20;;;;;;5012376;28;20113;-78
2023/06/24 09:11:58;;;;;;;6.22;4.25;;;28.50;41.20;;;;;;5012559;28;20523;-78
2023/06/24 09:14:26;;;;;;;6.80;3.78;;;28.80;40.70;;;;;;4994649;28;20117;-78
2023/06/24 09:17:00;;;;;;;4.22;3.78;;;28.80;41.80;;;;;;5012012;28;20037;-78
2023/06/24 09:19:29;;;;;;;7.82;4.10;;;28.50;42.40;;;;;;5011961;28;20026;-78
2023/06/24 09:22:01;;;;;;;9.20;4.50;;;29.00;40.90;;;;;;4994408;28;20018;-78
2023/06/24 09:24:33;;;;;;;4.93;3.63;;;29.80;40.80;;;;;;5012046;28;20491;-78
2023/06/24 09:26:59;;;;;;;5.75;3.80;;;29.50;39.00;;;;;;5014355;28;20174;-76
2023/06/24 09:29:29;;;;;;;7.53;4.32;;;;;;;;;;5032079;28;20113;-76
2023/06/24 09:31:59;;;;;;;5.80;3.95;;;;;;;;;;5031267;28;20122;-77
2023/06/24 09:34:26;;;;;;;8.05;4.55;;;27.20;41.60;;;;;;5031762;28;20495;-77
2023/06/24 09:36:53;;;;;;;6.03;4.18;;;27.20;42.10;;;;;;5031490;28;20072;-78
2023/06/24 09:39:28;;;;;;;5.68;4.03;;;27.40;42.10;;;;;;5030631;28;20021;-77
2023/06/24 09:41:57;;;;;;;7.30;4.95;;;28.00;40.30;;;;;;5028804;28;20369;-78
2023/06/24 09:44:24;;;;;;;8.57;4.50;;;27.30;41.40;;;;;;5030472;28;20484;-78
2023/06/24 09:46:49;;;;;;;4.82;3.58;;;26.80;42.30;;;;;;5031492;28;20038;-79
2023/06/24 09:49:15;;;;;;;7.20;4.15;;;26.60;43.90;;;;;;5030520;28;20022;-78
2023/06/24 09:51:46;;;;;;;7.75;4.45;;;27.80;42.20;;;;;;5031582;28;20030;-78
2023/06/24 09:54:13;;;;;;;5.47;4.05;;;28.60;40.30;;;;;;5031692;28;20189;-78
2023/06/24 09:57:01;;;;;;;7.03;4.00;;;28.60;39.30;;;;;;5031309;28;20030;-78
2023/06/24 09:59:27;;;;;;;8.23;4.05;;;28.40;40.40;;;;;;5031556;28;20545;-78
2023/06/24 10:01:54;;;;;;;6.80;4.05;;;28.40;40.80;;;;;;5031780;28;20029;-78
2023/06/24 10:04:23;;;;;;;5.07;3.92;;;28.90;39.10;;;;;;5031512;28;20117;-78
2023/06/24 10:06:49;;;;;;;5.05;3.70;;;28.80;38.50;;;;;;5030845;28;20521;-77
2023/06/24 10:09:17;;;;;;;8.30;4.28;;;28.70;40.00;;;;;;5031182;28;20040;-78
2023/06/24 10:11:44;;;;;;;5.35;3.80;;;28.70;39.20;;;;;;5031879;28;20025;-78
2023/06/24 10:14:10;;;;;;;8.07;4.70;;;28.50;40.60;;;;;;5031390;28;20036;-78
2023/06/24 10:16:36;;;;;;;6.03;4.55;;;28.50;39.40;;;;;;5013124;28;20463;-79
2023/06/24 10:19:03;;;;;;;5.53;4.32;;;27.50;41.10;;;;;;5031327;28;20034;-78
2023/06/24 10:21:45;;;;;;;8.73;4.97;;;26.60;44.40;;;;;;5030967;28;20438;-77
2023/06/24 10:24:10;;;;;;;4.53;4.13;;;26.30;46.10;;;;;;5031156;28;20028;-77
2023/06/24 10:26:36;;;;;;;6.82;4.60;;;26.20;46.70;;;;;;5030974;28;20112;-79
2023/06/24 10:29:05;;;;;;;7.18;4.28;;;26.30;46.70;;;;;;5030792;28;20543;-80
2023/06/24 10:31:40;;;;;;;6.78;4.72;;;26.60;45.20;;;;;;5031484;28;20026;-78
2023/06/24 10:34:27;;;;;;;5.50;4.60;;;27.00;44.90;;;;;;5017585;28;20044;-77
2023/06/24 10:37:12;;;;;;;10.27;5.65;;;27.40;44.10;;;;;;5017132;28;20021;-77
2023/06/24 10:39:49;;;;;;;5.38;4.45;;;27.70;46.80;;;;;;5035229;28;20027;-79
2023/06/24 10:42:26;;;;;;;6.63;3.92;;;27.90;43.60;;;;;;5035650;28;20026;-75
2023/06/24 10:44:53;;;;;;;7.15;4.43;;;27.80;46.60;;;;;;5035032;28;20483;-76
2023/06/24 10:47:19;;;;;;;9.77;4.68;;;28.10;42.60;;;;;;5036296;28;20047;-77
2023/06/24 10:49:45;;;;;;;9.52;4.55;;;27.90;43.30;;;;;;5034992;28;20026;-76
2023/06/24 10:52:12;;;;;;;10.68;4.00;;;;;;;;;;5031930;28;20029;-77
2023/06/24 10:54:38;;;;;;;5.45;4.28;;;;;;;;;;5033944;28;20061;-78
2023/06/24 10:57:04;;;;;;;5.45;4.07;;;;;;;;;;5032929;28;20104;-76
2023/06/24 10:59:41;;;;;;;6.32;4.35;;;;;;;;;;5033006;28;20017;-78
2023/06/24 11:02:09;;;;;;;6.13;4.03;;;;;;;;;;5033310;28;20022;-79
2023/06/24 11:04:42;;;;;;;6.50;4.47;;;;;;;;;;5019522;28;20026;-76
2023/06/24 11:07:08;;;;;;;7.43;6.13;;;;;;;;;;5030236;28;20044;-77
2023/06/24 11:09:34;;;;;;;5.93;5.07;;;;;;;;;;5033792;28;20403;-77
2023/06/24 11:12:02;;;;;;;6.93;4.22;;;;;;;;;;5032533;28;20030;-77
2023/06/24 11:14:28;;;;;;;13.57;4.80;;;;;;;;;;5031775;28;20040;-77
2023/06/24 11:16:54;;;;;;;5.90;4.35;;;;;;;;;;5034582;28;20025;-78
2023/06/24 11:19:20;;;;;;;7.32;4.68;;;;;;;;;;5020090;28;20029;-78
2023/06/24 11:21:47;;;;;;;5.40;4.82;;;;;;;;;;5032442;28;20029;-77
2023/06/24 11:24:13;;;;;;;5.75;4.80;;;;;;;;;;5032446;28;20026;-77
2023/06/24 11:26:39;;;;;;;5.05;4.55;;;;;;;;;;5030888;28;20029;-77
2023/06/24 11:29:12;;;;;;;6.28;4.50;;;;;;;;;;5033859;28;20044;-78
2023/06/24 11:31:38;;;;;;;6.18;4.32;;;;;;;;;;5034188;28;20074;-77
2023/06/24 11:34:04;;;;;;;7.63;4.60;;;;;;;;;;5032403;28;20506;-77
2023/06/24 11:36:30;;;;;;;7.60;4.40;;;;;;;;;;5031734;28;20513;-77
2023/06/24 11:38:56;;;;;;;10.80;8.65;;;;;;;;;;5031695;28;20037;-77
2023/06/24 11:41:23;;;;;;;20.77;14.35;;;;;;;;;;5022517;28;20025;-77
2023/06/24 11:43:49;;;;;;;18.67;14.02;;;;;;;;;;5031139;28;20024;-78
2023/06/24 11:46:25;;;;;;;27.60;20.60;;;;;;;;;;5021260;28;20030;-77
2023/06/24 11:48:51;;;;;;;33.40;18.08;;;;;;;;;;5025538;28;20034;-77
2023/06/24 11:51:17;;;;;;;28.48;21.25;;;;;;;;;;5028418;28;20026;-77
2023/06/24 11:53:45;;;;;;;7.25;6.35;;;;;;;;;;5033315;28;20025;-77
2023/06/24 11:56:11;;;;;;;7.90;5.43;;;;;;;;;;5034279;28;20422;-78
2023/06/24 11:58:37;;;;;;;16.70;13.65;;;;;;;;;;5033217;28;20025;-77
2023/06/24 12:01:08;;;;;;;20.58;15.93;;;;;;;;;;5033936;28;20022;-77
2023/06/24 12:03:34;;;;;;;18.45;14.57;;;;;;;;;;5032288;28;20092;-78
2023/06/24 12:06:00;;;;;;;42.13;33.40;;;;;;;;;;5033845;28;20021;-77
2023/06/24 12:08:26;;;;;;;43.60;32.55;;;;;;;;;;5033311;28;20060;-77
2023/06/24 12:10:52;;;;;;;17.50;12.07;;;;;;;;;;5034224;28;20480;-79
2023/06/24 12:13:19;;;;;;;21.25;14.05;;;;;;;;;;5033414;28;20509;-77
2023/06/24 12:15:45;;;;;;;6.95;5.15;;;;;;;;;;5033254;28;20033;-78
2023/06/24 12:18:14;;;;;;;16.52;11.88;;;;;;;;;;5032941;28;20075;-75
2023/06/24 12:20:40;;;;;;;8.80;6.90;;;;;;;;;;5033423;28;20026;-74
2023/06/24 12:23:06;;;;;;;9.60;5.60;;;;;;;;;;5014715;28;20029;-76
2023/06/24 12:25:32;;;;;;;5.38;3.97;;;;;;;;;;5033159;28;20022;-75
2023/06/24 12:28:02;;;;;;;6.80;5.28;;;;;;;;;;5033002;28;20029;-76
2023/06/24 12:30:28;;;;;;;8.63;5.15;;;;;;;;;;5032141;28;20025;-77
2023/06/24 12:32:54;;;;;;;7.35;4.40;;;;;;;;;;5032765;28;20101;-74
2023/06/24 12:35:20;;;;;;;8.45;4.90;;;;;;;;;;5032561;28;20041;-75
2023/06/24 12:37:47;;;;;;;11.63;5.00;;;;;;;;;;5032449;28;20013;-75
2023/06/24 12:40:13;;;;;;;8.15;4.35;;;;;;;;;;5032689;28;20022;-76
2023/06/24 12:42:39;;;;;;;5.18;4.50;;;;;;;;;;5032891;28;20071;-75
2023/06/24 12:45:06;;;;;;;6.82;5.15;;;;;;;;;;5032235;28;20096;-73
2023/06/24 12:47:32;;;;;;;5.75;4.53;;;;;;;;;;5012957;28;20026;-75
2023/06/24 12:49:58;;;;;;;5.47;4.53;;;;;;;;;;5032251;28;20045;-74
2023/06/24 12:52:24;;;;;;;7.93;5.68;;;;;;;;;;5032363;28;20044;-75
2023/06/24 12:54:50;;;;;;;4.93;4.30;;;;;;;;;;5030935;28;20448;-75
2023/06/24 12:57:16;;;;;;;7.80;4.80;;;;;;;;;;5033485;28;20021;-77
2023/06/24 12:59:43;;;;;;;5.72;4.75;;;;;;;;;;5033583;28;20029;-77
2023/06/24 13:02:09;;;;;;;5.80;4.82;;;;;;;;;;5015102;28;20049;-78
2023/06/24 13:04:35;;;;;;;8.80;4.68;;;;;;;;;;5031285;28;20021;-77
2023/06/24 13:07:01;;;;;;;8.15;4.88;;;;;;;;;;5013475;28;20029;-76
2023/06/24 13:09:27;;;;;;;8.93;4.63;;;;;;;;;;5032378;28;20095;-78
2023/06/24 13:11:53;;;;;;;7.25;4.90;;;;;;;;;;5014420;28;20025;-78
2023/06/24 13:14:19;;;;;;;7.05;4.40;;;;;;;;;;5014496;28;20037;-78
2023/06/24 13:16:45;;;;;;;7.15;5.03;;;;;;;;;;5031521;28;20480;-71
2023/06/24 13:19:11;;;;;;;7.22;4.57;;;;;;;;;;5032069;28;20037;-72
2023/06/24 13:21:37;;;;;;;14.65;9.73;;;;;;;;;;5031231;28;20013;-71
2023/06/24 13:24:04;;;;;;;35.75;21.17;;;;;;;;;;5030639;28;20032;-70
2023/06/24 13:26:30;;;;;;;6.78;5.32;;;;;;;;;;5030360;28;20108;-78
2023/06/24 13:28:56;;;;;;;8.75;6.97;;;;;;;;;;5031159;28;20029;-75
2023/06/24 13:31:22;;;;;;;7.20;4.55;;;;;;;;;;5012809;28;20029;-75
2023/06/24 13:33:48;;;;;;;7.63;4.63;;;;;;;;;;5029649;28;20643;-76
2023/06/24 13:36:28;;;;;;;5.22;4.40;;;;;;;;;;5029653;28;20033;-75
2023/06/24 13:38:54;;;;;;;5.38;4.05;;;;;;;;;;5029460;28;20030;-75
2023/06/24 13:41:20;;;;;;;4.55;4.15;;;;;;;;;;5029899;28;20643;-75
2023/06/24 13:43:46;;;;;;;8.35;4.47;;;;;;;;;;5011887;28;20040;-75
2023/06/24 13:46:12;;;;;;;6.65;4.25;;;;;;;;;;5030672;28;20395;-74
2023/06/24 13:48:38;;;;;;;6.20;4.90;;;;;;;;;;5031224;28;20037;-75
2023/06/24 13:51:06;;;;;;;5.78;4.00;;;;;;;;;;5032030;28;20026;-76
2023/06/24 13:53:32;;;;;;;6.35;4.13;;;;;;;;;;5032129;28;20034;-76
2023/06/24 13:55:58;;;;;;;7.25;4.90;;;;;;;;;;5032061;28;20036;-76
2023/06/24 13:58:24;;;;;;;7.03;4.07;;;;;;;;;;5031134;28;20357;-76
2023/06/24 14:00:50;;;;;;;7.38;3.97;;;;;;;;;;5031649;28;20084;-75
2023/06/24 14:03:16;;;;;;;7.88;4.43;;;;;;;;;;5031600;28;20071;-75
2023/06/24 14:05:42;;;;;;;6.43;4.28;;;;;;;;;;5031310;28;20158;-75
2023/06/24 14:08:08;;;;;;;5.18;3.95;;;;;;;;;;5031955;28;20124;-76
2023/06/24 14:10:35;;;;;;;17.67;12.90;;;;;;;;;;5031274;28;20101;-75